< Typhoon 197603 1976 Season Typhoon 197605 >
Typhoon 197604 (NANCY)
General InformationTrack Information on Google Maps || Disaster Info.ResourceGoogle EarthGE AnimationAtom FeedGeoJSON
Detalied Best Track (Time Zone = UTC)
Year Month Day Hour Lat. Long. Pressure (hPa) Wind (kt) Class Image Chart
1976 4 25 00 10.3 163.5 1004 0 2 -- Chart
1976 4 25 06 10.7 162.2 1000 0 2 -- Chart
1976 4 25 12 11.1 161.1 1000 0 2 -- Chart
1976 4 25 18 11.5 160.2 1000 0 2 -- Chart
1976 4 26 00 11.8 159.2 1000 0 2 -- Chart
1976 4 26 06 12.4 158.6 1000 0 9 -- Chart
1976 4 26 12 13.0 158.4 995 0 9 -- Chart
1976 4 26 18 13.5 158.3 995 0 9 -- Chart
1976 4 27 00 14.0 158.4 995 0 9 -- Chart
1976 4 27 06 14.4 158.1 990 0 9 -- Chart
1976 4 27 12 14.5 157.7 990 0 9 -- Chart
1976 4 27 18 14.7 157.2 990 0 9 -- Chart
1976 4 28 00 15.0 156.8 990 0 9 -- Chart
1976 4 28 06 15.1 156.4 990 0 9 -- Chart
1976 4 28 12 15.2 156.0 985 0 9 -- Chart
1976 4 28 18 15.2 155.4 985 0 9 -- Chart
1976 4 29 00 15.2 155.0 985 0 9 -- Chart
1976 4 29 06 15.3 154.2 985 0 9 -- Chart
1976 4 29 12 15.4 153.5 985 0 9 -- Chart
1976 4 29 18 15.5 152.8 985 0 9 -- Chart
1976 4 30 00 15.7 152.1 985 0 9 -- Chart
1976 4 30 06 15.9 151.2 985 0 9 -- Chart
1976 4 30 12 16.1 150.2 990 0 9 -- Chart
1976 4 30 18 16.4 149.2 996 0 9 -- Chart
1976 5 1 00 16.5 147.6 1000 0 9 -- Chart
1976 5 1 06 16.4 146.3 1004 0 9 -- Chart
1976 5 1 12 16.2 145.2 1004 0 9 -- Chart
1976 5 1 18 16.0 144.4 1004 0 9 -- Chart
1976 5 2 00 15.0 143.8 1004 0 2 -- Chart
1976 5 2 06 14.0 143.0 1004 0 2 -- Chart
1976 5 2 12 13.0 142.0 1008 0 2 -- Chart
Japan Meteorological Agency Best Track Data | Correction Date : 1992-10-21
< Typhoon 197603 1976 Season Typhoon 197605 >

Help